Suceava, Romania
Current Conditions -  °F | °C
As of 11:30 AM on Friday 19 Dec 2014 (Local Time) from LRSV Reporting Station
Clear Clear  
Wind Chill: 31°   Ceiling: Unl
Heat Index: 39°   Visibility: 6mi
Dew Point: 37°   Wind: 14mph
Humidity: 93%   Direction: 250°WSW
Pressure: 29.97"   Gusts: NA
Location:  47.65°N, 26.26°E
Report Text: LRSV 190830Z 25012KT 190V260 CAVOK 04/03 Q1015
Loading
Personal Weather Stations






























Interactive Weather Map New forecast layout! Learn more

10-Day Weather Forecast

Advertisements
Track Severe Weather on mobile